sensor_id;sensor_type;location;lat;lon;timestamp;temperature;humidity
3550;DHT22;45572;48.804;8.330;2022-07-17T00:00:24;16.80;78.60
3550;DHT22;45572;48.804;8.330;2022-07-17T00:02:52;16.80;79.00
3550;DHT22;45572;48.804;8.330;2022-07-17T00:05:22;16.80;78.80
3550;DHT22;45572;48.804;8.330;2022-07-17T00:07:51;16.80;78.60
3550;DHT22;45572;48.804;8.330;2022-07-17T00:10:20;16.80;79.10
3550;DHT22;45572;48.804;8.330;2022-07-17T00:12:48;16.80;78.60
3550;DHT22;45572;48.804;8.330;2022-07-17T00:15:18;16.70;79.20
3550;DHT22;45572;48.804;8.330;2022-07-17T00:17:46;16.70;79.20
3550;DHT22;45572;48.804;8.330;2022-07-17T00:20:13;16.50;79.30
3550;DHT22;45572;48.804;8.330;2022-07-17T00:22:42;16.50;79.70
3550;DHT22;45572;48.804;8.330;2022-07-17T00:25:10;16.50;79.40
3550;DHT22;45572;48.804;8.330;2022-07-17T00:27:39;16.40;79.50
3550;DHT22;45572;48.804;8.330;2022-07-17T00:30:07;16.40;79.90
3550;DHT22;45572;48.804;8.330;2022-07-17T00:32:35;16.40;79.90
3550;DHT22;45572;48.804;8.330;2022-07-17T00:35:03;16.40;79.80
3550;DHT22;45572;48.804;8.330;2022-07-17T00:37:38;16.30;79.90
3550;DHT22;45572;48.804;8.330;2022-07-17T00:40:09;16.40;79.80
3550;DHT22;45572;48.804;8.330;2022-07-17T00:42:39;16.30;79.80
3550;DHT22;45572;48.804;8.330;2022-07-17T00:45:07;16.20;80.20
3550;DHT22;45572;48.804;8.330;2022-07-17T00:47:50;16.20;80.10
3550;DHT22;45572;48.804;8.330;2022-07-17T00:50:19;16.30;80.20
3550;DHT22;45572;48.804;8.330;2022-07-17T00:52:48;16.20;80.80
3550;DHT22;45572;48.804;8.330;2022-07-17T00:55:18;16.10;80.60
3550;DHT22;45572;48.804;8.330;2022-07-17T00:58:07;16.00;80.80
3550;DHT22;45572;48.804;8.330;2022-07-17T01:00:36;16.00;80.90
3550;DHT22;45572;48.804;8.330;2022-07-17T01:03:04;15.90;81.20
3550;DHT22;45572;48.804;8.330;2022-07-17T01:05:32;15.90;81.20
3550;DHT22;45572;48.804;8.330;2022-07-17T01:08:01;15.90;81.10
3550;DHT22;45572;48.804;8.330;2022-07-17T01:10:30;15.70;81.40
3550;DHT22;45572;48.804;8.330;2022-07-17T01:12:59;15.70;81.70
3550;DHT22;45572;48.804;8.330;2022-07-17T01:15:27;15.60;81.90
3550;DHT22;45572;48.804;8.330;2022-07-17T01:17:55;15.60;82.00
3550;DHT22;45572;48.804;8.330;2022-07-17T01:20:23;15.50;82.00
3550;DHT22;45572;48.804;8.330;2022-07-17T01:22:53;15.50;82.10
3550;DHT22;45572;48.804;8.330;2022-07-17T01:25:22;15.50;82.20
3550;DHT22;45572;48.804;8.330;2022-07-17T01:27:50;15.50;82.30
3550;DHT22;45572;48.804;8.330;2022-07-17T01:30:19;15.50;82.10
3550;DHT22;45572;48.804;8.330;2022-07-17T01:32:46;15.50;82.60
3550;DHT22;45572;48.804;8.330;2022-07-17T01:35:15;15.40;82.40
3550;DHT22;45572;48.804;8.330;2022-07-17T01:37:47;15.30;82.70
3550;DHT22;45572;48.804;8.330;2022-07-17T01:40:17;15.30;83.00
3550;DHT22;45572;48.804;8.330;2022-07-17T01:42:47;15.20;82.90
3550;DHT22;45572;48.804;8.330;2022-07-17T01:45:17;15.10;83.40
3550;DHT22;45572;48.804;8.330;2022-07-17T01:47:45;15.20;83.40
3550;DHT22;45572;48.804;8.330;2022-07-17T01:50:14;15.20;83.10
3550;DHT22;45572;48.804;8.330;2022-07-17T01:52:45;15.20;83.30
3550;DHT22;45572;48.804;8.330;2022-07-17T01:55:16;15.20;83.20
3550;DHT22;45572;48.804;8.330;2022-07-17T01:57:44;15.20;83.30
3550;DHT22;45572;48.804;8.330;2022-07-17T02:00:14;15.10;83.30
3550;DHT22;45572;48.804;8.330;2022-07-17T02:02:43;15.10;83.60
3550;DHT22;45572;48.804;8.330;2022-07-17T02:05:12;15.20;83.40
3550;DHT22;45572;48.804;8.330;2022-07-17T02:07:40;15.20;83.00
3550;DHT22;45572;48.804;8.330;2022-07-17T02:10:10;15.20;83.00
3550;DHT22;45572;48.804;8.330;2022-07-17T02:12:46;15.10;83.10
3550;DHT22;45572;48.804;8.330;2022-07-17T02:15:14;15.10;83.20
3550;DHT22;45572;48.804;8.330;2022-07-17T02:17:42;15.00;83.60
3550;DHT22;45572;48.804;8.330;2022-07-17T02:20:11;14.90;83.60
3550;DHT22;45572;48.804;8.330;2022-07-17T02:22:41;14.90;83.80
3550;DHT22;45572;48.804;8.330;2022-07-17T02:25:10;14.80;83.90
3550;DHT22;45572;48.804;8.330;2022-07-17T02:27:38;14.90;83.80
3550;DHT22;45572;48.804;8.330;2022-07-17T02:30:10;14.90;83.60
3550;DHT22;45572;48.804;8.330;2022-07-17T02:32:39;14.90;83.60
3550;DHT22;45572;48.804;8.330;2022-07-17T02:35:08;14.90;83.70
3550;DHT22;45572;48.804;8.330;2022-07-17T02:37:37;14.90;84.00
3550;DHT22;45572;48.804;8.330;2022-07-17T02:40:07;14.80;83.70
3550;DHT22;45572;48.804;8.330;2022-07-17T02:42:34;14.80;83.80
3550;DHT22;45572;48.804;8.330;2022-07-17T02:45:03;14.80;83.70
3550;DHT22;45572;48.804;8.330;2022-07-17T02:47:35;14.90;83.70
3550;DHT22;45572;48.804;8.330;2022-07-17T02:50:04;14.80;83.80
3550;DHT22;45572;48.804;8.330;2022-07-17T02:52:33;14.80;83.70
3550;DHT22;45572;48.804;8.330;2022-07-17T02:55:01;14.80;83.60
3550;DHT22;45572;48.804;8.330;2022-07-17T02:57:29;14.80;83.70
3550;DHT22;45572;48.804;8.330;2022-07-17T02:59:58;14.80;83.70
3550;DHT22;45572;48.804;8.330;2022-07-17T03:02:26;14.70;83.70
3550;DHT22;45572;48.804;8.330;2022-07-17T03:04:55;14.80;83.90
3550;DHT22;45572;48.804;8.330;2022-07-17T03:07:23;14.70;83.80
3550;DHT22;45572;48.804;8.330;2022-07-17T03:09:51;14.70;83.80
3550;DHT22;45572;48.804;8.330;2022-07-17T03:12:19;14.70;83.80
3550;DHT22;45572;48.804;8.330;2022-07-17T03:14:47;14.60;83.90
3550;DHT22;45572;48.804;8.330;2022-07-17T03:17:15;14.60;84.10
3550;DHT22;45572;48.804;8.330;2022-07-17T03:19:43;14.60;84.10
3550;DHT22;45572;48.804;8.330;2022-07-17T03:22:12;14.50;84.30
3550;DHT22;45572;48.804;8.330;2022-07-17T03:24:39;14.50;84.30
3550;DHT22;45572;48.804;8.330;2022-07-17T03:27:07;14.60;84.30
3550;DHT22;45572;48.804;8.330;2022-07-17T03:29:35;14.60;84.20
3550;DHT22;45572;48.804;8.330;2022-07-17T03:32:03;14.50;84.10
3550;DHT22;45572;48.804;8.330;2022-07-17T03:34:31;14.50;84.20
3550;DHT22;45572;48.804;8.330;2022-07-17T03:36:59;14.40;84.70
3550;DHT22;45572;48.804;8.330;2022-07-17T03:39:28;14.30;85.00
3550;DHT22;45572;48.804;8.330;2022-07-17T03:41:57;14.30;84.80
3550;DHT22;45572;48.804;8.330;2022-07-17T03:44:26;14.30;84.80
3550;DHT22;45572;48.804;8.330;2022-07-17T03:46:54;14.30;85.00
3550;DHT22;45572;48.804;8.330;2022-07-17T03:49:22;14.40;84.80
3550;DHT22;45572;48.804;8.330;2022-07-17T03:51:50;14.40;85.00
3550;DHT22;45572;48.804;8.330;2022-07-17T03:54:18;14.30;85.20
3550;DHT22;45572;48.804;8.330;2022-07-17T03:56:47;14.40;84.90
3550;DHT22;45572;48.804;8.330;2022-07-17T03:59:15;14.30;85.20
3550;DHT22;45572;48.804;8.330;2022-07-17T04:01:43;14.30;85.10
3550;DHT22;45572;48.804;8.330;2022-07-17T04:04:11;14.20;85.30
3550;DHT22;45572;48.804;8.330;2022-07-17T04:06:39;14.20;85.10
3550;DHT22;45572;48.804;8.330;2022-07-17T04:09:07;14.20;85.20
3550;DHT22;45572;48.804;8.330;2022-07-17T04:11:35;14.20;85.20
3550;DHT22;45572;48.804;8.330;2022-07-17T04:14:04;14.20;84.90
3550;DHT22;45572;48.804;8.330;2022-07-17T04:16:31;14.20;85.40
3550;DHT22;45572;48.804;8.330;2022-07-17T04:18:59;14.20;85.30
3550;DHT22;45572;48.804;8.330;2022-07-17T04:21:27;14.20;85.30
3550;DHT22;45572;48.804;8.330;2022-07-17T04:23:55;14.30;85.20
3550;DHT22;45572;48.804;8.330;2022-07-17T04:26:23;14.40;84.90
3550;DHT22;45572;48.804;8.330;2022-07-17T04:28:51;14.50;84.50
3550;DHT22;45572;48.804;8.330;2022-07-17T04:31:20;14.50;84.70
3550;DHT22;45572;48.804;8.330;2022-07-17T04:33:48;14.50;84.70
3550;DHT22;45572;48.804;8.330;2022-07-17T04:36:19;14.50;84.80
3550;DHT22;45572;48.804;8.330;2022-07-17T04:38:49;14.40;84.50
3550;DHT22;45572;48.804;8.330;2022-07-17T04:41:17;14.40;85.40
3550;DHT22;45572;48.804;8.330;2022-07-17T04:43:46;14.30;85.30
3550;DHT22;45572;48.804;8.330;2022-07-17T04:46:14;14.40;85.60
3550;DHT22;45572;48.804;8.330;2022-07-17T04:48:43;14.50;85.30
3550;DHT22;45572;48.804;8.330;2022-07-17T04:51:10;14.60;85.30
3550;DHT22;45572;48.804;8.330;2022-07-17T04:53:38;14.60;84.80
3550;DHT22;45572;48.804;8.330;2022-07-17T04:56:06;14.70;84.70
3550;DHT22;45572;48.804;8.330;2022-07-17T04:58:34;14.80;84.70
3550;DHT22;45572;48.804;8.330;2022-07-17T05:01:02;14.80;84.40
3550;DHT22;45572;48.804;8.330;2022-07-17T05:03:30;14.90;84.20
3550;DHT22;45572;48.804;8.330;2022-07-17T05:05:59;15.00;84.40
3550;DHT22;45572;48.804;8.330;2022-07-17T05:08:27;15.00;84.20
3550;DHT22;45572;48.804;8.330;2022-07-17T05:11:02;15.10;84.30
3550;DHT22;45572;48.804;8.330;2022-07-17T05:13:30;15.20;84.00
3550;DHT22;45572;48.804;8.330;2022-07-17T05:15:58;15.30;83.80
3550;DHT22;45572;48.804;8.330;2022-07-17T05:18:26;15.30;83.50
3550;DHT22;45572;48.804;8.330;2022-07-17T05:20:54;15.40;83.40
3550;DHT22;45572;48.804;8.330;2022-07-17T05:23:23;15.60;82.90
3550;DHT22;45572;48.804;8.330;2022-07-17T05:25:50;15.80;82.50
3550;DHT22;45572;48.804;8.330;2022-07-17T05:28:18;16.10;82.00
3550;DHT22;45572;48.804;8.330;2022-07-17T05:30:46;16.20;81.90
3550;DHT22;45572;48.804;8.330;2022-07-17T05:33:14;16.40;81.10
3550;DHT22;45572;48.804;8.330;2022-07-17T05:35:42;16.70;80.50
3550;DHT22;45572;48.804;8.330;2022-07-17T05:38:10;16.90;80.00
3550;DHT22;45572;48.804;8.330;2022-07-17T05:40:39;17.10;79.80
3550;DHT22;45572;48.804;8.330;2022-07-17T05:43:07;17.40;78.90
3550;DHT22;45572;48.804;8.330;2022-07-17T05:45:35;17.70;77.90
3550;DHT22;45572;48.804;8.330;2022-07-17T05:48:03;18.00;76.80
3550;DHT22;45572;48.804;8.330;2022-07-17T05:50:30;18.30;75.20
3550;DHT22;45572;48.804;8.330;2022-07-17T05:52:58;18.50;73.60
3550;DHT22;45572;48.804;8.330;2022-07-17T05:55:26;18.80;72.50
3550;DHT22;45572;48.804;8.330;2022-07-17T05:57:56;19.00;71.90
3550;DHT22;45572;48.804;8.330;2022-07-17T06:00:23;19.30;71.30
3550;DHT22;45572;48.804;8.330;2022-07-17T06:02:52;19.50;70.60
3550;DHT22;45572;48.804;8.330;2022-07-17T06:05:21;19.80;68.90
3550;DHT22;45572;48.804;8.330;2022-07-17T06:07:49;20.10;68.00
3550;DHT22;45572;48.804;8.330;2022-07-17T06:10:16;20.70;66.40
3550;DHT22;45572;48.804;8.330;2022-07-17T06:12:44;21.90;63.80
3550;DHT22;45572;48.804;8.330;2022-07-17T06:15:13;23.10;60.80
3550;DHT22;45572;48.804;8.330;2022-07-17T06:17:42;24.40;57.90
3550;DHT22;45572;48.804;8.330;2022-07-17T06:20:11;25.60;54.80
3550;DHT22;45572;48.804;8.330;2022-07-17T06:22:39;26.70;52.70
3550;DHT22;45572;48.804;8.330;2022-07-17T06:25:07;27.70;51.00
3550;DHT22;45572;48.804;8.330;2022-07-17T06:27:38;28.70;48.30
3550;DHT22;45572;48.804;8.330;2022-07-17T06:30:07;29.50;46.90
3550;DHT22;45572;48.804;8.330;2022-07-17T06:32:36;30.20;45.40
3550;DHT22;45572;48.804;8.330;2022-07-17T06:35:04;30.90;45.10
3550;DHT22;45572;48.804;8.330;2022-07-17T06:37:33;31.50;43.60
3550;DHT22;45572;48.804;8.330;2022-07-17T06:40:01;32.00;42.30
3550;DHT22;45572;48.804;8.330;2022-07-17T06:42:29;32.40;42.40
3550;DHT22;45572;48.804;8.330;2022-07-17T06:44:58;33.00;41.60
3550;DHT22;45572;48.804;8.330;2022-07-17T06:47:26;33.20;40.70
3550;DHT22;45572;48.804;8.330;2022-07-17T06:49:55;32.60;41.80
3550;DHT22;45572;48.804;8.330;2022-07-17T06:52:23;33.30;40.90
3550;DHT22;45572;48.804;8.330;2022-07-17T06:54:56;34.00;40.50
3550;DHT22;45572;48.804;8.330;2022-07-17T06:57:24;34.50;38.40
3550;DHT22;45572;48.804;8.330;2022-07-17T06:59:52;33.80;39.10
3550;DHT22;45572;48.804;8.330;2022-07-17T07:02:20;34.50;39.40
3550;DHT22;45572;48.804;8.330;2022-07-17T07:04:47;35.20;38.50
3550;DHT22;45572;48.804;8.330;2022-07-17T07:07:17;35.80;38.30
3550;DHT22;45572;48.804;8.330;2022-07-17T07:09:44;36.10;37.70
3550;DHT22;45572;48.804;8.330;2022-07-17T07:12:12;36.50;38.10
3550;DHT22;45572;48.804;8.330;2022-07-17T07:14:40;36.90;37.80
3550;DHT22;45572;48.804;8.330;2022-07-17T07:17:08;37.40;36.80
3550;DHT22;45572;48.804;8.330;2022-07-17T07:19:36;37.60;36.70
3550;DHT22;45572;48.804;8.330;2022-07-17T07:22:04;37.60;36.70
3550;DHT22;45572;48.804;8.330;2022-07-17T07:24:33;37.70;36.60
3550;DHT22;45572;48.804;8.330;2022-07-17T07:27:01;38.10;36.50
3550;DHT22;45572;48.804;8.330;2022-07-17T07:29:29;38.40;35.90
3550;DHT22;45572;48.804;8.330;2022-07-17T07:31:56;38.60;36.10
3550;DHT22;45572;48.804;8.330;2022-07-17T07:34:24;38.80;35.80
3550;DHT22;45572;48.804;8.330;2022-07-17T07:36:52;38.80;35.70
3550;DHT22;45572;48.804;8.330;2022-07-17T07:39:20;39.00;35.20
3550;DHT22;45572;48.804;8.330;2022-07-17T07:41:49;39.20;35.00
3550;DHT22;45572;48.804;8.330;2022-07-17T07:44:18;38.80;35.10
3550;DHT22;45572;48.804;8.330;2022-07-17T07:46:57;38.80;34.90
3550;DHT22;45572;48.804;8.330;2022-07-17T07:49:25;39.40;35.30
3550;DHT22;45572;48.804;8.330;2022-07-17T07:51:53;39.30;35.40
3550;DHT22;45572;48.804;8.330;2022-07-17T07:54:30;39.50;35.40
3550;DHT22;45572;48.804;8.330;2022-07-17T07:57:00;39.70;34.80
3550;DHT22;45572;48.804;8.330;2022-07-17T07:59:28;40.00;34.90
3550;DHT22;45572;48.804;8.330;2022-07-17T08:01:59;40.40;34.80
3550;DHT22;45572;48.804;8.330;2022-07-17T08:04:27;40.50;34.60
3550;DHT22;45572;48.804;8.330;2022-07-17T08:06:55;41.00;34.10
3550;DHT22;45572;48.804;8.330;2022-07-17T08:09:23;41.30;33.20
3550;DHT22;45572;48.804;8.330;2022-07-17T08:11:51;41.40;34.10
3550;DHT22;45572;48.804;8.330;2022-07-17T08:14:20;41.40;34.20
3550;DHT22;45572;48.804;8.330;2022-07-17T08:16:48;41.60;33.80
3550;DHT22;45572;48.804;8.330;2022-07-17T08:19:16;42.00;33.60
3550;DHT22;45572;48.804;8.330;2022-07-17T08:21:44;42.00;33.30
3550;DHT22;45572;48.804;8.330;2022-07-17T08:24:12;41.70;34.00
3550;DHT22;45572;48.804;8.330;2022-07-17T08:26:40;41.30;33.60
3550;DHT22;45572;48.804;8.330;2022-07-17T08:29:07;41.60;34.50
3550;DHT22;45572;48.804;8.330;2022-07-17T08:31:36;42.10;33.60
3550;DHT22;45572;48.804;8.330;2022-07-17T08:34:04;42.10;33.60
3550;DHT22;45572;48.804;8.330;2022-07-17T08:36:32;42.20;33.30
3550;DHT22;45572;48.804;8.330;2022-07-17T08:39:00;42.60;33.10
3550;DHT22;45572;48.804;8.330;2022-07-17T08:41:29;42.80;32.70
3550;DHT22;45572;48.804;8.330;2022-07-17T08:43:57;43.00;32.70
3550;DHT22;45572;48.804;8.330;2022-07-17T08:46:26;43.10;32.20
3550;DHT22;45572;48.804;8.330;2022-07-17T08:49:02;43.50;33.10
3550;DHT22;45572;48.804;8.330;2022-07-17T08:51:30;43.70;32.30
3550;DHT22;45572;48.804;8.330;2022-07-17T08:54:00;44.00;31.80
3550;DHT22;45572;48.804;8.330;2022-07-17T08:56:28;43.40;31.20
3550;DHT22;45572;48.804;8.330;2022-07-17T08:58:56;43.10;31.80
3550;DHT22;45572;48.804;8.330;2022-07-17T09:01:24;41.90;32.10
3550;DHT22;45572;48.804;8.330;2022-07-17T09:03:54;41.30;31.50
3550;DHT22;45572;48.804;8.330;2022-07-17T09:06:24;40.60;32.60
3550;DHT22;45572;48.804;8.330;2022-07-17T09:09:10;41.30;33.90
3550;DHT22;45572;48.804;8.330;2022-07-17T09:11:43;40.50;31.50
3550;DHT22;45572;48.804;8.330;2022-07-17T09:14:11;40.60;33.30
3550;DHT22;45572;48.804;8.330;2022-07-17T09:16:55;40.40;32.00
3550;DHT22;45572;48.804;8.330;2022-07-17T09:19:25;40.20;31.50
3550;DHT22;45572;48.804;8.330;2022-07-17T09:22:08;40.50;32.30
3550;DHT22;45572;48.804;8.330;2022-07-17T09:24:40;40.70;31.20
3550;DHT22;45572;48.804;8.330;2022-07-17T09:27:09;40.60;30.80
3550;DHT22;45572;48.804;8.330;2022-07-17T09:29:51;39.40;32.00
3550;DHT22;45572;48.804;8.330;2022-07-17T09:32:21;38.90;33.20
3550;DHT22;45572;48.804;8.330;2022-07-17T09:34:51;39.40;32.90
3550;DHT22;45572;48.804;8.330;2022-07-17T09:37:21;39.10;32.70
3550;DHT22;45572;48.804;8.330;2022-07-17T09:39:49;39.90;33.70
3550;DHT22;45572;48.804;8.330;2022-07-17T09:42:26;40.30;32.30
3550;DHT22;45572;48.804;8.330;2022-07-17T09:45:01;40.40;31.40
3550;DHT22;45572;48.804;8.330;2022-07-17T09:47:31;40.30;32.10
3550;DHT22;45572;48.804;8.330;2022-07-17T09:50:02;40.30;32.20
3550;DHT22;45572;48.804;8.330;2022-07-17T09:52:34;40.30;32.30
3550;DHT22;45572;48.804;8.330;2022-07-17T09:55:04;40.50;32.10
3550;DHT22;45572;48.804;8.330;2022-07-17T09:57:54;40.50;31.50
3550;DHT22;45572;48.804;8.330;2022-07-17T10:00:22;40.70;31.60
3550;DHT22;45572;48.804;8.330;2022-07-17T10:02:52;41.00;31.20
3550;DHT22;45572;48.804;8.330;2022-07-17T10:05:20;40.50;32.10
3550;DHT22;45572;48.804;8.330;2022-07-17T10:07:49;40.90;31.60
3550;DHT22;45572;48.804;8.330;2022-07-17T10:10:18;40.20;31.90
3550;DHT22;45572;48.804;8.330;2022-07-17T10:12:50;40.40;30.80
3550;DHT22;45572;48.804;8.330;2022-07-17T10:15:24;40.50;32.70
3550;DHT22;45572;48.804;8.330;2022-07-17T10:18:03;41.00;31.00
3550;DHT22;45572;48.804;8.330;2022-07-17T10:20:32;41.10;31.90
3550;DHT22;45572;48.804;8.330;2022-07-17T10:23:11;41.20;31.50
3550;DHT22;45572;48.804;8.330;2022-07-17T10:25:40;40.80;30.50
3550;DHT22;45572;48.804;8.330;2022-07-17T10:28:09;39.10;32.20
3550;DHT22;45572;48.804;8.330;2022-07-17T10:30:42;39.70;32.60
3550;DHT22;45572;48.804;8.330;2022-07-17T10:33:15;39.80;32.50
3550;DHT22;45572;48.804;8.330;2022-07-17T10:35:48;40.40;31.60
3550;DHT22;45572;48.804;8.330;2022-07-17T10:38:18;40.40;32.10
3550;DHT22;45572;48.804;8.330;2022-07-17T10:40:47;40.60;31.50
3550;DHT22;45572;48.804;8.330;2022-07-17T10:43:26;41.30;31.30
3550;DHT22;45572;48.804;8.330;2022-07-17T10:45:54;41.50;30.20
3550;DHT22;45572;48.804;8.330;2022-07-17T10:48:22;41.60;30.10
3550;DHT22;45572;48.804;8.330;2022-07-17T10:50:53;41.40;30.00
3550;DHT22;45572;48.804;8.330;2022-07-17T10:53:25;41.70;30.10
3550;DHT22;45572;48.804;8.330;2022-07-17T10:55:54;40.40;30.60
3550;DHT22;45572;48.804;8.330;2022-07-17T10:58:24;39.60;32.80
3550;DHT22;45572;48.804;8.330;2022-07-17T11:00:58;39.60;31.40
3550;DHT22;45572;48.804;8.330;2022-07-17T11:03:26;39.10;31.90
3550;DHT22;45572;48.804;8.330;2022-07-17T11:05:54;39.00;31.70
3550;DHT22;45572;48.804;8.330;2022-07-17T11:08:23;39.30;32.10
3550;DHT22;45572;48.804;8.330;2022-07-17T11:10:51;39.80;31.40
3550;DHT22;45572;48.804;8.330;2022-07-17T11:13:19;39.60;30.90
3550;DHT22;45572;48.804;8.330;2022-07-17T11:15:48;39.80;31.20
3550;DHT22;45572;48.804;8.330;2022-07-17T11:18:18;40.10;30.70
3550;DHT22;45572;48.804;8.330;2022-07-17T11:20:49;39.40;30.30
3550;DHT22;45572;48.804;8.330;2022-07-17T11:23:17;39.90;30.10
3550;DHT22;45572;48.804;8.330;2022-07-17T11:26:02;38.90;30.90
3550;DHT22;45572;48.804;8.330;2022-07-17T11:28:33;39.30;30.60
3550;DHT22;45572;48.804;8.330;2022-07-17T11:31:04;40.20;31.00
3550;DHT22;45572;48.804;8.330;2022-07-17T11:33:47;41.10;30.10
3550;DHT22;45572;48.804;8.330;2022-07-17T11:36:27;41.60;29.40
3550;DHT22;45572;48.804;8.330;2022-07-17T11:38:57;41.00;29.50
3550;DHT22;45572;48.804;8.330;2022-07-17T11:41:36;41.20;29.20
3550;DHT22;45572;48.804;8.330;2022-07-17T11:44:06;41.40;29.10
3550;DHT22;45572;48.804;8.330;2022-07-17T11:46:37;41.90;30.30
3550;DHT22;45572;48.804;8.330;2022-07-17T11:49:07;42.00;28.10
3550;DHT22;45572;48.804;8.330;2022-07-17T11:51:39;41.20;28.10
3550;DHT22;45572;48.804;8.330;2022-07-17T11:54:09;41.00;28.80
3550;DHT22;45572;48.804;8.330;2022-07-17T11:56:39;41.00;29.80
3550;DHT22;45572;48.804;8.330;2022-07-17T11:59:08;41.50;28.80
3550;DHT22;45572;48.804;8.330;2022-07-17T12:01:41;41.50;28.50
3550;DHT22;45572;48.804;8.330;2022-07-17T12:04:10;41.60;28.10
3550;DHT22;45572;48.804;8.330;2022-07-17T12:06:45;41.20;28.60
3550;DHT22;45572;48.804;8.330;2022-07-17T12:09:13;41.20;28.30
3550;DHT22;45572;48.804;8.330;2022-07-17T12:11:49;41.60;28.90
3550;DHT22;45572;48.804;8.330;2022-07-17T12:14:18;40.80;28.60
3550;DHT22;45572;48.804;8.330;2022-07-17T12:16:46;41.20;28.40
3550;DHT22;45572;48.804;8.330;2022-07-17T12:19:15;40.40;27.90
3550;DHT22;45572;48.804;8.330;2022-07-17T12:21:49;39.60;28.60
3550;DHT22;45572;48.804;8.330;2022-07-17T12:24:19;39.30;28.80
3550;DHT22;45572;48.804;8.330;2022-07-17T12:26:49;39.10;28.60
3550;DHT22;45572;48.804;8.330;2022-07-17T12:29:18;38.80;29.20
3550;DHT22;45572;48.804;8.330;2022-07-17T12:31:46;38.80;29.20
3550;DHT22;45572;48.804;8.330;2022-07-17T12:34:14;39.30;28.90
3550;DHT22;45572;48.804;8.330;2022-07-17T12:36:43;39.00;28.90
3550;DHT22;45572;48.804;8.330;2022-07-17T12:39:11;39.50;28.70
3550;DHT22;45572;48.804;8.330;2022-07-17T12:41:38;39.60;28.10
3550;DHT22;45572;48.804;8.330;2022-07-17T12:44:08;39.30;28.20
3550;DHT22;45572;48.804;8.330;2022-07-17T12:46:36;39.10;28.60
3550;DHT22;45572;48.804;8.330;2022-07-17T12:49:04;39.10;28.90
3550;DHT22;45572;48.804;8.330;2022-07-17T12:51:32;39.20;28.80
3550;DHT22;45572;48.804;8.330;2022-07-17T12:54:00;38.70;29.80
3550;DHT22;45572;48.804;8.330;2022-07-17T12:56:30;38.10;29.90
3550;DHT22;45572;48.804;8.330;2022-07-17T12:58:59;37.70;32.20
3550;DHT22;45572;48.804;8.330;2022-07-17T13:01:29;37.00;31.70
3550;DHT22;45572;48.804;8.330;2022-07-17T13:03:59;35.90;31.20
3550;DHT22;45572;48.804;8.330;2022-07-17T13:06:27;35.00;31.40
3550;DHT22;45572;48.804;8.330;2022-07-17T13:08:56;34.40;32.70
3550;DHT22;45572;48.804;8.330;2022-07-17T13:11:24;33.90;33.70
3550;DHT22;45572;48.804;8.330;2022-07-17T13:13:53;33.40;33.90
3550;DHT22;45572;48.804;8.330;2022-07-17T13:16:21;33.00;34.50
3550;DHT22;45572;48.804;8.330;2022-07-17T13:18:50;32.50;35.00
3550;DHT22;45572;48.804;8.330;2022-07-17T13:21:18;32.30;35.10
3550;DHT22;45572;48.804;8.330;2022-07-17T13:23:46;32.20;37.00
3550;DHT22;45572;48.804;8.330;2022-07-17T13:26:14;32.10;35.90
3550;DHT22;45572;48.804;8.330;2022-07-17T13:28:46;32.00;36.10
3550;DHT22;45572;48.804;8.330;2022-07-17T13:31:13;31.90;35.70
3550;DHT22;45572;48.804;8.330;2022-07-17T13:33:42;31.80;35.70
3550;DHT22;45572;48.804;8.330;2022-07-17T13:36:11;31.70;35.90
3550;DHT22;45572;48.804;8.330;2022-07-17T13:38:38;31.70;36.50
3550;DHT22;45572;48.804;8.330;2022-07-17T13:41:06;31.70;36.00
3550;DHT22;45572;48.804;8.330;2022-07-17T13:43:34;31.60;36.10
3550;DHT22;45572;48.804;8.330;2022-07-17T13:46:02;31.50;36.20
3550;DHT22;45572;48.804;8.330;2022-07-17T13:48:30;31.40;36.50
3550;DHT22;45572;48.804;8.330;2022-07-17T13:50:58;31.40;37.40
3550;DHT22;45572;48.804;8.330;2022-07-17T13:53:27;31.40;36.70
3550;DHT22;45572;48.804;8.330;2022-07-17T13:56:05;31.20;36.00
3550;DHT22;45572;48.804;8.330;2022-07-17T13:58:33;31.30;36.30
3550;DHT22;45572;48.804;8.330;2022-07-17T14:01:01;31.20;36.20
3550;DHT22;45572;48.804;8.330;2022-07-17T14:03:29;31.20;36.20
3550;DHT22;45572;48.804;8.330;2022-07-17T14:05:57;31.10;35.40
3550;DHT22;45572;48.804;8.330;2022-07-17T14:08:25;31.10;36.00
3550;DHT22;45572;48.804;8.330;2022-07-17T14:10:54;31.00;35.60
3550;DHT22;45572;48.804;8.330;2022-07-17T14:13:22;31.10;35.90
3550;DHT22;45572;48.804;8.330;2022-07-17T14:15:50;31.10;35.80
3550;DHT22;45572;48.804;8.330;2022-07-17T14:18:18;31.10;37.00
3550;DHT22;45572;48.804;8.330;2022-07-17T14:20:46;31.10;35.80
3550;DHT22;45572;48.804;8.330;2022-07-17T14:23:14;31.10;35.80
3550;DHT22;45572;48.804;8.330;2022-07-17T14:25:44;31.00;35.10
3550;DHT22;45572;48.804;8.330;2022-07-17T14:28:13;30.90;35.40
3550;DHT22;45572;48.804;8.330;2022-07-17T14:30:47;31.00;35.90
3550;DHT22;45572;48.804;8.330;2022-07-17T14:33:14;30.90;35.00
3550;DHT22;45572;48.804;8.330;2022-07-17T14:35:42;30.90;35.20
3550;DHT22;45572;48.804;8.330;2022-07-17T14:38:10;30.90;35.40
3550;DHT22;45572;48.804;8.330;2022-07-17T14:40:38;30.90;35.40
3550;DHT22;45572;48.804;8.330;2022-07-17T14:43:05;30.90;34.60
3550;DHT22;45572;48.804;8.330;2022-07-17T14:45:35;30.80;35.10
3550;DHT22;45572;48.804;8.330;2022-07-17T14:48:03;30.80;34.80
3550;DHT22;45572;48.804;8.330;2022-07-17T14:50:31;30.80;34.80
3550;DHT22;45572;48.804;8.330;2022-07-17T14:52:59;30.70;35.70
3550;DHT22;45572;48.804;8.330;2022-07-17T14:55:27;30.70;35.70
3550;DHT22;45572;48.804;8.330;2022-07-17T14:57:55;30.70;34.90
3550;DHT22;45572;48.804;8.330;2022-07-17T15:00:23;30.70;34.90
3550;DHT22;45572;48.804;8.330;2022-07-17T15:02:53;30.80;35.00
3550;DHT22;45572;48.804;8.330;2022-07-17T15:05:21;30.80;34.70
3550;DHT22;45572;48.804;8.330;2022-07-17T15:07:49;30.70;34.60
3550;DHT22;45572;48.804;8.330;2022-07-17T15:10:17;30.60;34.60
3550;DHT22;45572;48.804;8.330;2022-07-17T15:12:44;30.50;34.70
3550;DHT22;45572;48.804;8.330;2022-07-17T15:15:12;30.50;34.50
3550;DHT22;45572;48.804;8.330;2022-07-17T15:17:40;30.40;35.00
3550;DHT22;45572;48.804;8.330;2022-07-17T15:20:10;30.50;35.40
3550;DHT22;45572;48.804;8.330;2022-07-17T15:22:39;30.50;34.50
3550;DHT22;45572;48.804;8.330;2022-07-17T15:25:07;30.50;34.50
3550;DHT22;45572;48.804;8.330;2022-07-17T15:27:35;30.50;34.80
3550;DHT22;45572;48.804;8.330;2022-07-17T15:30:04;30.50;34.90
3550;DHT22;45572;48.804;8.330;2022-07-17T15:32:32;30.60;35.10
3550;DHT22;45572;48.804;8.330;2022-07-17T15:35:00;30.60;34.30
3550;DHT22;45572;48.804;8.330;2022-07-17T15:37:32;30.60;34.10
3550;DHT22;45572;48.804;8.330;2022-07-17T15:40:00;30.60;33.80
3550;DHT22;45572;48.804;8.330;2022-07-17T15:42:28;30.60;33.60
3550;DHT22;45572;48.804;8.330;2022-07-17T15:45:00;30.50;34.10
3550;DHT22;45572;48.804;8.330;2022-07-17T15:47:28;30.50;33.90
3550;DHT22;45572;48.804;8.330;2022-07-17T15:49:56;30.60;34.20
3550;DHT22;45572;48.804;8.330;2022-07-17T15:52:24;30.60;33.10
3550;DHT22;45572;48.804;8.330;2022-07-17T15:54:53;30.60;34.00
3550;DHT22;45572;48.804;8.330;2022-07-17T15:57:21;30.50;33.30